Key West Naval Air Station, Florida
Current Conditions -  °F | °C
As of 10:53 PM on Friday 28 Nov 2014 (Local Time) from KNQX Reporting Station
Clear Clear  
Wind Chill: 63°   Ceiling: Unl
Heat Index: 63°   Visibility: 10mi
Dew Point: 53°   Wind: 15mph
Humidity: 70%   Direction: 20°NNE
Pressure: 30.19"   Gusts: NA
Location:  24.5796°N, 81.6849°W
Report Text: KNQX 290353Z AUTO 02013KT 10SM CLR 17/12 A3019 RMK AO2 SLP221 T01720117 $
Loading
Personal Weather Stations






























Interactive Weather Map New forecast layout! Learn more

10-Day Weather Forecast

Advertisements
Track Severe Weather on mobile